CFS4735 FAPG-FAPE
Flight info
| Callsign | CFS4735 |
|---|---|
| Flight time | N/A |
| Altitude | 17000 |
| Route | DCT |
| Aircraft | C208/L-SDF/C |
Departure
| Time | N/A |
|---|---|
| Airport | Plettenberg Bay Airport (FAPG) |
Arrival
| Time | 2026-04-21 13:31 |
|---|---|
| Airport | Chief Dawid Stuurman International Airport (FAPE) |
| Time | Latitude | Longitude | Altitude | Speed | Heading |
|---|---|---|---|---|---|
| 2026-04-21 13:09 | -34.06169 | 24.41258 | 15182 ft | 192 kts | 81° |
| 2026-04-21 13:10 | -34.06076 | 24.42865 | 15299 ft | 192 kts | 81° |
| 2026-04-21 13:10 | -34.05983 | 24.44473 | 15420 ft | 192 kts | 81° |
| 2026-04-21 13:10 | -34.05891 | 24.46086 | 15547 ft | 193 kts | 81° |
| 2026-04-21 13:10 | -34.05795 | 24.47705 | 15669 ft | 194 kts | 81° |
| 2026-04-21 13:11 | -34.05701 | 24.49329 | 15796 ft | 194 kts | 81° |
| 2026-04-21 13:11 | -34.05607 | 24.50958 | 15920 ft | 195 kts | 81° |
| 2026-04-21 13:11 | -34.05514 | 24.52584 | 16045 ft | 194 kts | 81° |
| 2026-04-21 13:11 | -34.05419 | 24.54212 | 16166 ft | 195 kts | 81° |
| 2026-04-21 13:12 | -34.05324 | 24.55839 | 16283 ft | 195 kts | 81° |
| 2026-04-21 13:12 | -34.05229 | 24.57469 | 16407 ft | 195 kts | 81° |
| 2026-04-21 13:12 | -34.05135 | 24.59103 | 16532 ft | 195 kts | 81° |
| 2026-04-21 13:12 | -34.05041 | 24.60733 | 16658 ft | 195 kts | 80° |
| 2026-04-21 13:13 | -34.04948 | 24.62366 | 16795 ft | 196 kts | 81° |
| 2026-04-21 13:13 | -34.04852 | 24.64002 | 16913 ft | 197 kts | 80° |
| 2026-04-21 13:13 | -34.04751 | 24.65682 | 16925 ft | 205 kts | 81° |
| 2026-04-21 13:13 | -34.04651 | 24.67421 | 16927 ft | 211 kts | 81° |
| 2026-04-21 13:14 | -34.04550 | 24.69203 | 16926 ft | 215 kts | 81° |
| 2026-04-21 13:14 | -34.04446 | 24.71022 | 16923 ft | 219 kts | 81° |
| 2026-04-21 13:14 | -34.04340 | 24.72865 | 16922 ft | 222 kts | 81° |
| 2026-04-21 13:14 | -34.04232 | 24.74723 | 16919 ft | 223 kts | 82° |
| 2026-04-21 13:15 | -34.04123 | 24.76594 | 16922 ft | 224 kts | 81° |
| 2026-04-21 13:15 | -34.04016 | 24.78442 | 16918 ft | 225 kts | 81° |
| 2026-04-21 13:15 | -34.03906 | 24.80321 | 16923 ft | 225 kts | 81° |
| 2026-04-21 13:15 | -34.03798 | 24.82203 | 16920 ft | 225 kts | 81° |
| 2026-04-21 13:16 | -34.03689 | 24.84083 | 16916 ft | 225 kts | 81° |
| 2026-04-21 13:16 | -34.03579 | 24.85967 | 16916 ft | 225 kts | 81° |
| 2026-04-21 13:16 | -34.03469 | 24.87852 | 16913 ft | 226 kts | 81° |
| 2026-04-21 13:16 | -34.03358 | 24.89740 | 16909 ft | 226 kts | 81° |
| 2026-04-21 13:17 | -34.03249 | 24.91627 | 16910 ft | 225 kts | 82° |
| 2026-04-21 13:17 | -34.03140 | 24.93508 | 16908 ft | 224 kts | 81° |
| 2026-04-21 13:17 | -34.03032 | 24.95382 | 16910 ft | 224 kts | 82° |
| 2026-04-21 13:17 | -34.02922 | 24.97281 | 16742 ft | 233 kts | 82° |
| 2026-04-21 13:18 | -34.02805 | 24.99268 | 16497 ft | 241 kts | 82° |
| 2026-04-21 13:18 | -34.02691 | 25.01304 | 16262 ft | 245 kts | 82° |
| 2026-04-21 13:18 | -34.02572 | 25.03372 | 15995 ft | 249 kts | 82° |
| 2026-04-21 13:18 | -34.02448 | 25.05470 | 15684 ft | 253 kts | 82° |
| 2026-04-21 13:19 | -34.02324 | 25.07600 | 15348 ft | 256 kts | 83° |
| 2026-04-21 13:19 | -34.02199 | 25.09744 | 15009 ft | 257 kts | 83° |
| 2026-04-21 13:19 | -34.02074 | 25.11889 | 14674 ft | 256 kts | 83° |
| 2026-04-21 13:19 | -34.01950 | 25.14031 | 14341 ft | 256 kts | 83° |
| 2026-04-21 13:20 | -34.01826 | 25.16161 | 14007 ft | 255 kts | 83° |
| 2026-04-21 13:20 | -34.01703 | 25.18289 | 13671 ft | 254 kts | 83° |
| 2026-04-21 13:20 | -34.01580 | 25.20404 | 13302 ft | 252 kts | 83° |
| 2026-04-21 13:20 | -34.01460 | 25.22507 | 12941 ft | 251 kts | 83° |
| 2026-04-21 13:21 | -34.01335 | 25.24598 | 12584 ft | 249 kts | 83° |
| 2026-04-21 13:21 | -34.01203 | 25.26672 | 12227 ft | 248 kts | 83° |
| 2026-04-21 13:21 | -34.01070 | 25.28737 | 11870 ft | 246 kts | 83° |
| 2026-04-21 13:21 | -34.00932 | 25.30788 | 11514 ft | 245 kts | 83° |
| 2026-04-21 13:22 | -34.00792 | 25.32831 | 11130 ft | 244 kts | 83° |
| 2026-04-21 13:22 | -34.00660 | 25.34873 | 10757 ft | 245 kts | 83° |
| 2026-04-21 13:22 | -34.00546 | 25.36917 | 10394 ft | 244 kts | 83° |
| 2026-04-21 13:22 | -34.00419 | 25.38944 | 10056 ft | 241 kts | 83° |
| 2026-04-21 13:23 | -34.00262 | 25.40933 | 9686 ft | 236 kts | 82° |
| 2026-04-21 13:23 | -34.00105 | 25.42893 | 9286 ft | 234 kts | 83° |
| 2026-04-21 13:23 | -33.99945 | 25.44834 | 8889 ft | 232 kts | 82° |
| 2026-04-21 13:23 | -33.99794 | 25.46759 | 8502 ft | 230 kts | 83° |
| 2026-04-21 13:24 | -33.99645 | 25.48671 | 8115 ft | 228 kts | 83° |
| 2026-04-21 13:24 | -33.99496 | 25.50568 | 7731 ft | 227 kts | 83° |
| 2026-04-21 13:24 | -33.99267 | 25.52407 | 7408 ft | 223 kts | 74° |
| 2026-04-21 13:24 | -33.98908 | 25.54206 | 7099 ft | 221 kts | 71° |
| 2026-04-21 13:25 | -33.98488 | 25.55977 | 6686 ft | 218 kts | 68° |
| 2026-04-21 13:25 | -33.98003 | 25.57703 | 6116 ft | 217 kts | 63° |
| 2026-04-21 13:25 | -33.97290 | 25.59268 | 5559 ft | 210 kts | 49° |
| 2026-04-21 13:25 | -33.96426 | 25.60646 | 5082 ft | 202 kts | 41° |
| 2026-04-21 13:26 | -33.95469 | 25.61889 | 4479 ft | 204 kts | 40° |
| 2026-04-21 13:26 | -33.94522 | 25.63159 | 3964 ft | 201 kts | 44° |
| 2026-04-21 13:26 | -33.93620 | 25.64400 | 3523 ft | 193 kts | 45° |
| 2026-04-21 13:26 | -33.92734 | 25.65573 | 2842 ft | 189 kts | 46° |
| 2026-04-21 13:27 | -33.92003 | 25.66872 | 2162 ft | 190 kts | 73° |
| 2026-04-21 13:27 | -33.92179 | 25.68319 | 1830 ft | 165 kts | 130° |
| 2026-04-21 13:27 | -33.93040 | 25.68952 | 1511 ft | 136 kts | 182° |
| 2026-04-21 13:27 | -33.93829 | 25.68690 | 1520 ft | 103 kts | 214° |
| 2026-04-21 13:28 | -33.94414 | 25.68299 | 1507 ft | 91 kts | 223° |
| 2026-04-21 13:28 | -33.94908 | 25.67861 | 1472 ft | 87 kts | 225° |
| 2026-04-21 13:28 | -33.95389 | 25.67407 | 1386 ft | 90 kts | 228° |
| 2026-04-21 13:28 | -33.95821 | 25.66872 | 1234 ft | 88 kts | 238° |
| 2026-04-21 13:29 | -33.96141 | 25.66289 | 1159 ft | 76 kts | 245° |
| 2026-04-21 13:29 | -33.96401 | 25.65764 | 1086 ft | 73 kts | 242° |
| 2026-04-21 13:29 | -33.96663 | 25.65233 | 978 ft | 75 kts | 240° |
| 2026-04-21 13:29 | -33.96943 | 25.64695 | 833 ft | 77 kts | 234° |
| 2026-04-21 13:30 | -33.97229 | 25.64145 | 685 ft | 81 kts | 241° |
| 2026-04-21 13:30 | -33.97490 | 25.63550 | 608 ft | 73 kts | 254° |
| 2026-04-21 13:30 | -33.97771 | 25.63062 | 524 ft | 74 kts | 232° |
| 2026-04-21 13:30 | -33.98041 | 25.62557 | 393 ft | 70 kts | 239° |
| 2026-04-21 13:31 | -33.98308 | 25.62090 | 286 ft | 70 kts | 235° |
| 2026-04-21 13:31 | -33.98555 | 25.61590 | 214 ft | 63 kts | 235° |
| 2026-04-21 13:31 | -33.98760 | 25.61193 | 206 ft | 49 kts | 234° |
| 2026-04-21 13:31 | -33.98825 | 25.61026 | 202 ft | 11 kts | 309° |
| 2026-04-21 13:32 | -33.98737 | 25.60951 | 203 ft | 10 kts | 337° |
| 2026-04-21 13:32 | -33.98684 | 25.60916 | 202 ft | 8 kts | 331° |
| 2026-04-21 13:32 | -33.98621 | 25.60865 | 203 ft | 9 kts | 328° |
| 2026-04-21 13:32 | -33.98598 | 25.60833 | 202 ft | 0 kts | 145° |
| 2026-04-21 13:34 | -33.98597 | 25.60833 | 202 ft | 0 kts | 145° |
| 2026-04-21 13:36 | -33.98597 | 25.60832 | 202 ft | 0 kts | 145° |